Time;durP1;ratioP1;P1;durP2;ratioP2;P2;SDS_P1;SDS_P2;PMS_P1;PMS_P2;Temp;Humidity;BMP_temperature;BMP_pressure;BME280_temperature;BME280_humidity;BME280_pressure;Samples;Min_cycle;Max_cycle;Signal;HPM_P1;HPM_P2
2022/04/24 00:02:04;;;;;;;19.70;11.90;;;;;;;9.19;89.15;96633.50;5015448;28;20214;-51
2022/04/24 00:04:31;;;;;;;19.63;13.37;;;;;;;9.35;89.30;96634.19;5015544;28;20269;-50
2022/04/24 00:06:59;;;;;;;19.50;13.50;;;;;;;9.52;88.35;96625.06;5015404;28;20238;-50
2022/04/24 00:09:26;;;;;;;21.03;14.10;;;;;;;9.49;88.23;96630.66;5015013;28;20196;-51
2022/04/24 00:11:53;;;;;;;21.83;13.77;;;;;;;9.54;88.69;96617.84;5015237;28;20703;-51
2022/04/24 00:14:19;;;;;;;18.87;13.53;;;;;;;9.66;89.03;96619.88;5017895;28;20208;-51
2022/04/24 00:16:47;;;;;;;18.80;12.37;;;;;;;9.65;89.48;96618.28;5025024;28;20192;-51
2022/04/24 00:19:15;;;;;;;19.13;13.10;;;;;;;9.67;88.66;96618.88;5018002;28;20278;-50
2022/04/24 00:21:42;;;;;;;23.37;13.47;;;;;;;9.66;89.21;96622.50;5015149;28;20192;-50
2022/04/24 00:24:10;;;;;;;20.00;13.67;;;;;;;9.73;89.73;96623.31;5015214;28;20210;-50
2022/04/24 00:26:37;;;;;;;20.03;13.07;;;;;;;9.75;89.59;96623.94;5015237;28;20211;-51
2022/04/24 00:29:04;;;;;;;18.53;13.57;;;;;;;9.80;89.20;96620.75;4996934;28;20198;-52
2022/04/24 00:31:31;;;;;;;24.40;14.07;;;;;;;9.82;89.51;96622.16;5014950;28;20235;-51
2022/04/24 00:33:58;;;;;;;21.33;13.87;;;;;;;9.85;89.28;96620.97;5014931;28;20207;-51
2022/04/24 00:36:25;;;;;;;19.13;13.77;;;;;;;9.90;88.73;96627.19;5014924;28;20723;-51
2022/04/24 00:38:52;;;;;;;17.10;12.17;;;;;;;9.96;89.01;96630.84;5014953;28;20251;-50
2022/04/24 00:41:20;;;;;;;21.67;12.73;;;;;;;10.03;87.80;96633.44;5014870;28;20180;-50
2022/04/24 00:43:52;;;;;;;20.37;14.30;;;;;;;10.10;88.50;96633.47;5014800;28;20612;-50
2022/04/24 00:46:41;;;;;;;24.40;14.73;;;;;;;10.26;87.29;96629.69;5014886;28;20193;-50
2022/04/24 00:49:09;;;;;;;21.03;13.33;;;;;;;10.29;86.36;96626.69;5014539;28;20200;-51
2022/04/24 00:51:37;;;;;;;23.30;14.63;;;;;;;10.42;85.63;96638.97;5014500;28;20240;-50
2022/04/24 00:54:07;;;;;;;23.77;15.80;;;;;;;10.51;83.66;96644.81;5014666;28;20221;-50
2022/04/24 00:56:54;;;;;;;22.83;15.27;;;;;;;10.46;83.01;96651.44;5014812;28;20248;-50
2022/04/24 00:59:21;;;;;;;22.33;14.63;;;;;;;10.46;83.81;96641.00;5014368;28;20181;-51
2022/04/24 01:01:48;;;;;;;22.53;15.40;;;;;;;10.42;84.67;96639.78;5014547;28;20203;-50
2022/04/24 01:04:14;;;;;;;23.30;15.20;;;;;;;10.41;84.23;96648.63;5014509;28;20196;-50
2022/04/24 01:06:43;;;;;;;21.43;14.30;;;;;;;10.39;84.33;96654.97;5013431;28;20185;-50
2022/04/24 01:09:15;;;;;;;23.00;15.63;;;;;;;10.41;85.29;96650.41;5013735;28;20236;-51
2022/04/24 01:11:43;;;;;;;20.33;15.53;;;;;;;10.42;84.43;96659.84;4996513;28;20220;-50
2022/04/24 01:14:12;;;;;;;24.83;17.63;;;;;;;10.44;84.09;96673.47;4996376;28;20268;-51
2022/04/24 01:16:39;;;;;;;23.00;17.17;;;;;;;10.44;82.81;96671.69;5014290;28;20190;-51
2022/04/24 01:19:06;;;;;;;24.03;16.40;;;;;;;10.37;85.11;96672.63;5013851;28;20186;-51
2022/04/24 01:21:35;;;;;;;27.87;16.47;;;;;;;10.39;83.87;96688.88;5013860;28;20446;-50
2022/04/24 01:24:05;;;;;;;25.23;17.23;;;;;;;10.37;83.84;96686.50;5011860;28;20214;-51
2022/04/24 01:26:32;;;;;;;23.83;17.77;;;;;;;10.33;85.22;96680.84;5001259;28;20205;-52
2022/04/24 01:28:59;;;;;;;27.00;16.87;;;;;;;10.31;84.52;96688.06;5009469;28;20673;-51
2022/04/24 01:31:26;;;;;;;27.67;18.77;;;;;;;10.29;84.91;96691.88;5013494;28;20199;-51
2022/04/24 01:33:52;;;;;;;27.60;17.53;;;;;;;10.31;87.79;96689.88;5010066;28;20266;-54
2022/04/24 01:36:19;;;;;;;26.37;17.17;;;;;;;10.32;87.79;96686.28;5008561;28;20656;-51
2022/04/24 01:38:47;;;;;;;24.77;17.00;;;;;;;10.30;89.19;96698.72;5009465;28;20204;-50
2022/04/24 01:41:14;;;;;;;26.03;17.67;;;;;;;10.28;88.83;96691.06;5013526;28;20280;-52
2022/04/24 01:43:42;;;;;;;27.23;18.53;;;;;;;10.27;88.43;96705.09;5013487;28;20568;-50
2022/04/24 01:46:10;;;;;;;29.20;18.90;;;;;;;10.30;88.96;96709.13;5013538;28;20199;-51
2022/04/24 01:48:37;;;;;;;27.93;17.93;;;;;;;10.25;89.21;96716.75;5013191;28;20263;-50
2022/04/24 01:51:05;;;;;;;29.23;19.10;;;;;;;10.24;89.32;96722.97;5013277;28;20208;-51
2022/04/24 01:53:32;;;;;;;30.77;18.87;;;;;;;10.13;90.18;96722.53;5012837;28;20711;-50
2022/04/24 01:56:01;;;;;;;30.00;19.37;;;;;;;10.07;90.54;96718.09;5013616;28;20187;-51
2022/04/24 01:58:28;;;;;;;26.63;18.27;;;;;;;10.09;89.94;96717.88;5013308;28;20671;-50
2022/04/24 02:00:55;;;;;;;33.17;19.80;;;;;;;10.02;90.86;96715.25;5013603;28;20192;-51
2022/04/24 02:03:24;;;;;;;30.97;19.60;;;;;;;10.01;90.01;96718.84;5013490;28;20218;-51
2022/04/24 02:05:51;;;;;;;30.63;19.23;;;;;;;10.02;89.38;96721.28;5013568;28;20212;-50
2022/04/24 02:08:18;;;;;;;34.87;20.03;;;;;;;10.01;90.44;96718.84;5013186;28;20203;-50
2022/04/24 02:10:44;;;;;;;30.67;20.20;;;;;;;9.96;90.74;96719.47;4995643;28;20541;-51
2022/04/24 02:13:13;;;;;;;32.30;20.57;;;;;;;9.96;91.29;96719.47;5013235;28;20216;-51
2022/04/24 02:15:41;;;;;;;31.70;20.63;;;;;;;9.94;91.07;96713.63;5013409;28;20251;-50
2022/04/24 02:18:08;;;;;;;31.83;20.63;;;;;;;9.94;90.83;96729.28;5013160;28;20527;-51
2022/04/24 02:20:35;;;;;;;33.23;21.23;;;;;;;9.97;89.85;96734.09;5012965;28;20195;-51
2022/04/24 02:23:04;;;;;;;31.50;20.67;;;;;;;9.96;91.37;96732.50;5013137;28;20188;-51
2022/04/24 02:25:32;;;;;;;28.33;19.50;;;;;;;9.95;92.04;96743.09;5006593;28;20207;-51
2022/04/24 02:27:59;;;;;;;34.70;20.70;;;;;;;9.94;93.94;96733.66;5012566;28;20545;-52
2022/04/24 02:30:29;;;;;;;30.37;20.67;;;;;;;9.88;93.44;96741.25;5005214;28;20308;-50
2022/04/24 02:32:58;;;;;;;33.73;22.30;;;;;;;9.85;93.12;96740.84;5012864;28;20204;-50
2022/04/24 02:35:25;;;;;;;30.23;20.50;;;;;;;9.84;94.36;96739.25;5021174;28;20200;-50
2022/04/24 02:37:52;;;;;;;30.00;21.03;;;;;;;9.85;94.66;96740.84;5013078;28;20191;-51
2022/04/24 02:40:21;;;;;;;31.83;20.20;;;;;;;9.86;92.58;96742.47;5012753;28;20200;-51
2022/04/24 02:42:49;;;;;;;35.03;21.73;;;;;;;9.89;93.71;96750.69;5013013;28;20246;-51
2022/04/24 02:45:16;;;;;;;35.10;20.93;;;;;;;9.86;93.57;96742.47;5013057;28;20516;-51
2022/04/24 02:47:45;;;;;;;31.20;19.27;;;;;;;9.87;93.01;96746.69;5012657;28;20249;-50
2022/04/24 02:50:12;;;;;;;30.30;20.67;;;;;;;9.88;93.32;96761.31;5012602;28;20219;-51
2022/04/24 02:52:46;;;;;;;32.13;20.40;;;;;;;9.86;94.18;96760.69;5012621;28;20212;-51
2022/04/24 02:55:14;;;;;;;31.00;21.80;;;;;;;9.90;94.80;96757.50;5012769;28;20196;-51
2022/04/24 02:57:41;;;;;;;32.67;20.90;;;;;;;9.88;94.89;96762.09;5012830;28;20214;-51
2022/04/24 03:00:10;;;;;;;33.93;22.13;;;;;;;9.95;94.13;96767.38;5012506;28;20189;-50
2022/04/24 03:02:42;;;;;;;34.40;22.33;;;;;;;10.00;94.11;96770.19;5016260;28;20199;-51
2022/04/24 03:05:11;;;;;;;34.93;23.87;;;;;;;10.07;91.75;96774.66;5016072;28;20310;-50
2022/04/24 03:07:37;;;;;;;43.60;25.83;;;;;;;10.11;91.97;96784.47;5020823;28;20251;-51
2022/04/24 03:10:05;;;;;;;42.30;27.13;;;;;;;10.10;91.08;96797.69;5027949;28;20191;-52
2022/04/24 03:12:32;;;;;;;37.70;26.60;;;;;;;10.07;91.23;96800.72;5032477;28;20215;-51
2022/04/24 03:14:58;;;;;;;41.03;26.10;;;;;;;10.08;91.64;96803.09;5032343;28;20213;-51
2022/04/24 03:17:25;;;;;;;42.47;27.67;;;;;;;10.06;91.57;96802.50;5032479;28;20191;-51
2022/04/24 03:19:52;;;;;;;45.27;28.43;;;;;;;10.04;91.59;96812.31;5014206;28;20667;-50
2022/04/24 03:22:21;;;;;;;44.53;28.63;;;;;;;10.05;92.35;96819.13;5032210;28;20590;-51
2022/04/24 03:24:47;;;;;;;46.07;30.23;;;;;;;10.05;92.89;96808.72;5031947;28;20433;-52
2022/04/24 03:27:14;;;;;;;43.97;27.73;;;;;;;9.99;92.02;96806.88;5032122;28;20180;-51
2022/04/24 03:29:41;;;;;;;44.20;29.20;;;;;;;9.95;92.71;96806.47;5033344;28;20190;-51
2022/04/24 03:32:09;;;;;;;39.93;26.70;;;;;;;9.98;92.27;96813.91;5036320;28;20213;-51
2022/04/24 03:34:37;;;;;;;41.83;27.10;;;;;;;9.97;93.03;96814.06;5036139;28;20279;-50
2022/04/24 03:37:04;;;;;;;37.83;25.13;;;;;;;9.98;93.88;96820.91;5036407;28;20187;-50
2022/04/24 03:39:32;;;;;;;36.43;24.57;;;;;;;9.87;94.53;96823.03;5036030;28;20198;-51
2022/04/24 03:41:59;;;;;;;37.60;24.00;;;;;;;9.85;93.55;96824.25;5036218;28;20190;-51
2022/04/24 03:44:26;;;;;;;38.23;25.97;;;;;;;9.85;94.97;96826.84;5018082;28;20293;-51
2022/04/24 03:46:53;;;;;;;37.27;24.03;;;;;;;9.78;95.93;96832.00;5036129;28;20201;-51
2022/04/24 03:49:20;;;;;;;37.90;25.50;;;;;;;9.76;96.10;96828.78;5035958;28;20180;-50
2022/04/24 03:51:46;;;;;;;34.00;21.60;;;;;;;9.73;97.10;96831.75;5036010;28;20607;-50
2022/04/24 03:54:13;;;;;;;37.03;23.30;;;;;;;9.72;97.82;96832.75;5035456;28;20669;-50
2022/04/24 03:56:41;;;;;;;31.53;22.07;;;;;;;9.69;97.77;96836.56;5035878;28;20249;-51
2022/04/24 03:59:08;;;;;;;28.53;18.93;;;;;;;9.69;96.75;96835.72;5035592;28;20194;-52
2022/04/24 04:01:35;;;;;;;24.17;16.50;;;;;;;9.67;96.99;96851.56;5035827;28;20550;-50
2022/04/24 04:04:04;;;;;;;20.53;14.53;;;;;;;9.62;97.07;96835.69;5035734;28;20200;-51
2022/04/24 04:06:31;;;;;;;16.60;12.33;;;;;;;9.60;96.81;96848.09;5035812;28;20194;-50
2022/04/24 04:08:57;;;;;;;18.30;11.63;;;;;;;9.62;97.37;96840.09;5035558;28;20194;-52
2022/04/24 04:11:26;;;;;;;12.17;9.17;;;;;;;9.46;97.56;96852.41;5035746;28;20196;-51
2022/04/24 04:13:54;;;;;;;8.63;6.13;;;;;;;9.49;97.92;96854.66;5035481;28;20579;-50
2022/04/24 04:16:21;;;;;;;7.00;4.80;;;;;;;9.38;98.42;96858.53;5035702;28;20194;-50
2022/04/24 04:18:50;;;;;;;5.17;3.30;;;;;;;9.28;97.34;96851.06;5035412;28;20888;-50
2022/04/24 04:21:17;;;;;;;2.93;2.23;;;;;;;9.10;98.01;96858.47;5035521;28;20186;-50
2022/04/24 04:23:44;;;;;;;2.90;2.00;;;;;;;8.99;98.67;96868.38;5035509;28;20231;-51
2022/04/24 04:26:11;;;;;;;1.80;1.37;;;;;;;8.96;99.39;96858.34;5035278;28;20193;-50
2022/04/24 04:28:38;;;;;;;2.90;1.53;;;;;;;8.84;100.00;96870.22;5020204;28;20619;-51
2022/04/24 04:31:06;;;;;;;1.83;1.30;;;;;;;8.81;100.00;96868.78;5011365;28;20197;-50
2022/04/24 04:33:32;;;;;;;1.47;1.07;;;;;;;8.76;100.00;96880.72;5023350;28;20214;-51
2022/04/24 04:35:59;;;;;;;1.70;1.20;;;;;;;8.75;99.51;96882.53;5015283;28;20197;-52
2022/04/24 04:38:26;;;;;;;0.97;0.60;;;;;;;8.72;100.00;96880.28;5023526;28;20300;-51
2022/04/24 04:40:53;;;;;;;2.23;0.60;;;;;;;8.61;99.74;96881.56;5021066;28;20199;-51
2022/04/24 04:43:20;;;;;;;1.87;0.40;;;;;;;8.60;99.86;96899.94;5018565;28;20212;-51
2022/04/24 04:45:49;;;;;;;2.50;0.47;;;;;;;8.53;99.47;96895.47;5026660;28;20210;-52
2022/04/24 04:48:17;;;;;;;1.53;0.60;;;;;;;8.49;100.00;96896.81;5018538;28;20210;-50
2022/04/24 04:50:43;;;;;;;0.53;0.40;;;;;;;8.47;100.00;96900.56;5021906;28;20196;-51
2022/04/24 04:53:10;;;;;;;1.33;0.40;;;;;;;8.39;100.00;96904.88;5022754;28;20253;-50
2022/04/24 04:55:38;;;;;;;2.23;0.27;;;;;;;8.34;99.46;96906.38;5014865;28;20330;-51
2022/04/24 04:58:05;;;;;;;0.67;0.60;;;;;;;8.38;100.00;96910.22;5023179;28;20200;-52
2022/04/24 05:00:32;;;;;;;0.43;0.40;;;;;;;8.36;100.00;96907.81;5022658;28;20242;-51
2022/04/24 05:02:59;;;;;;;0.60;0.33;;;;;;;8.38;99.95;96911.06;5022755;28;20200;-51
2022/04/24 05:05:28;;;;;;;1.03;0.20;;;;;;;8.39;100.00;96915.28;5022957;28;20195;-51
2022/04/24 05:07:54;;;;;;;1.23;0.50;;;;;;;8.41;100.00;96917.69;5020745;28;20201;-51
2022/04/24 05:10:21;;;;;;;0.80;0.40;;;;;;;8.41;100.00;96915.06;5024338;28;20716;-51
2022/04/24 05:12:48;;;;;;;1.37;0.50;;;;;;;8.39;100.00;96927.44;5014654;28;20583;-51
2022/04/24 05:15:16;;;;;;;0.80;0.30;;;;;;;8.35;99.57;96918.38;5014470;28;20607;-52
2022/04/24 05:17:44;;;;;;;0.80;0.50;;;;;;;8.33;100.00;96915.97;5018969;28;20560;-51
2022/04/24 05:20:12;;;;;;;0.50;0.40;;;;;;;8.30;100.00;96918.94;5025858;28;20192;-51
2022/04/24 05:22:41;;;;;;;5.07;1.70;;;;;;;8.35;100.00;96921.81;5034388;28;20569;-50
2022/04/24 05:25:10;;;;;;;11.33;6.83;;;;;;;8.39;100.00;96943.03;5034393;28;20914;-50
2022/04/24 05:27:37;;;;;;;1.70;0.90;;;;;;;8.42;100.00;96940.91;5034209;28;20648;-50
2022/04/24 05:30:07;;;;;;;0.77;0.60;;;;;;;8.41;100.00;96934.09;5033843;28;20198;-52
2022/04/24 05:32:39;;;;;;;1.23;0.53;;;;;;;8.44;100.00;96953.72;5034135;28;20194;-50
2022/04/24 05:35:24;;;;;;;2.27;0.40;;;;;;;8.36;100.00;96949.41;5034423;28;20254;-50
2022/04/24 05:37:52;;;;;;;0.40;0.40;;;;;;;8.36;100.00;96959.81;5034196;28;20253;-52
2022/04/24 05:40:19;;;;;;;2.23;1.43;;;;;;;8.35;100.00;96960.00;5034056;28;20210;-51
2022/04/24 05:42:49;;;;;;;0.40;0.30;;;;;;;8.33;99.80;96964.56;5033831;28;20183;-51
2022/04/24 05:45:18;;;;;;;1.47;0.37;;;;;;;8.42;99.34;96966.91;5033862;28;20545;-50
2022/04/24 05:47:46;;;;;;;0.70;0.60;;;;;;;8.40;99.02;96968.88;5033912;28;20214;-50
2022/04/24 05:50:14;;;;;;;1.70;0.50;;;;;;;8.41;100.00;96964.47;5033700;28;20218;-51
2022/04/24 05:52:41;;;;;;;0.20;0.20;;;;;;;8.50;97.99;96976.44;5033225;28;20527;-50
2022/04/24 05:55:11;;;;;;;1.20;0.30;;;;;;;8.49;98.82;96967.03;5033505;28;20203;-51
2022/04/24 05:57:38;;;;;;;0.43;0.40;;;;;;;8.57;99.76;96971.31;5033687;28;20181;-51
2022/04/24 06:00:06;;;;;;;0.53;0.23;;;;;;;8.50;99.72;96986.03;5033483;28;20184;-51
2022/04/24 06:02:52;;;;;;;0.30;0.30;;;;;;;8.55;99.76;96986.28;5033942;28;20849;-51
2022/04/24 06:05:19;;;;;;;1.50;0.30;;;;;;;8.52;97.26;96977.06;5033706;28;20647;-51
2022/04/24 06:07:46;;;;;;;0.47;0.30;;;;;;;8.52;97.63;96982.28;5033395;28;20201;-51
2022/04/24 06:10:15;;;;;;;3.10;0.50;;;;;;;8.52;98.34;96979.66;5033144;28;20251;-50
2022/04/24 06:12:46;;;;;;;0.30;0.23;;;;;;;8.64;99.21;96981.84;5033363;28;20194;-50
2022/04/24 06:15:16;;;;;;;0.87;0.30;;;;;;;8.73;99.25;96985.13;5015381;28;20684;-51
2022/04/24 06:17:43;;;;;;;0.83;0.40;;;;;;;8.78;98.86;96983.63;5033373;28;20550;-51
2022/04/24 06:20:11;;;;;;;1.77;1.57;;;;;;;8.86;99.42;96993.13;5032864;28;20526;-54
2022/04/24 06:22:45;;;;;;;0.60;0.50;;;;;;;8.92;98.80;96995.00;5033322;28;20186;-51
2022/04/24 06:25:17;;;;;;;0.43;0.30;;;;;;;8.92;96.01;96981.22;5033166;28;20187;-50
2022/04/24 06:27:44;;;;;;;1.70;0.70;;;;;;;8.92;97.85;96986.41;5031630;28;20218;-50
2022/04/24 06:30:12;;;;;;;3.90;2.63;;;;;;;8.97;97.00;96984.88;5014351;28;20197;-51
2022/04/24 06:32:39;;;;;;;0.53;0.30;;;;;;;9.03;96.47;96985.13;5013093;28;20655;-51
2022/04/24 06:35:09;;;;;;;0.43;0.30;;;;;;;9.11;96.58;96985.03;5021283;28;20274;-51
2022/04/24 06:37:36;;;;;;;0.60;0.33;;;;;;;9.09;95.70;96993.00;4993689;28;20184;-51
2022/04/24 06:40:02;;;;;;;0.30;0.20;;;;;;;9.14;94.05;96989.88;4993582;28;20688;-50
2022/04/24 06:42:30;;;;;;;4.50;2.10;;;;;;;9.19;95.90;97000.56;4993455;28;20188;-51
2022/04/24 06:44:57;;;;;;;1.10;0.60;;;;;;;9.13;93.41;96991.66;4993421;28;20213;-50
2022/04/24 06:47:24;;;;;;;1.37;0.60;;;;;;;9.13;95.12;96994.25;4993450;28;20584;-51
2022/04/24 06:49:51;;;;;;;0.33;0.30;;;;;;;9.09;95.49;97002.63;4993207;28;20232;-51
2022/04/24 06:52:19;;;;;;;0.63;0.47;;;;;;;9.05;94.73;96998.78;4993477;28;20199;-51
2022/04/24 06:54:46;;;;;;;0.30;0.20;;;;;;;9.04;94.76;96999.75;4993159;28;20227;-52
2022/04/24 06:57:13;;;;;;;0.20;0.20;;;;;;;8.95;91.75;96997.25;4993326;28;20192;-51
2022/04/24 06:59:41;;;;;;;0.30;0.20;;;;;;;8.98;93.23;96996.09;4993114;28;20299;-51
2022/04/24 07:02:08;;;;;;;0.30;0.20;;;;;;;8.94;93.95;96987.03;4993306;28;20203;-51
2022/04/24 07:04:53;;;;;;;0.50;0.30;;;;;;;8.99;92.70;96997.72;4992594;28;20277;-51
2022/04/24 07:07:20;;;;;;;1.30;0.20;;;;;;;8.94;93.56;96993.03;4993262;28;20230;-51
2022/04/24 07:09:46;;;;;;;0.40;0.20;;;;;;;8.96;93.96;96991.06;4992950;28;20246;-50
2022/04/24 07:12:13;;;;;;;3.43;2.73;;;;;;;8.97;95.19;96995.28;4992969;28;20192;-52
2022/04/24 07:14:41;;;;;;;1.53;1.43;;;;;;;9.00;97.01;96994.91;4993120;28;20216;-51
2022/04/24 07:17:08;;;;;;;0.83;0.60;;;;;;;8.94;96.70;96997.44;4992968;28;20585;-51
2022/04/24 07:19:35;;;;;;;0.80;0.80;;;;;;;8.98;96.11;97004.69;4993026;28;20200;-51
2022/04/24 07:22:01;;;;;;;0.33;0.27;;;;;;;9.04;97.73;97016.16;4993138;28;20238;-52
2022/04/24 07:24:28;;;;;;;3.00;0.40;;;;;;;9.02;96.99;97007.72;4992976;28;20215;-51
2022/04/24 07:26:55;;;;;;;0.30;0.17;;;;;;;9.03;96.69;97004.13;4975384;28;20592;-51
2022/04/24 07:29:22;;;;;;;1.30;0.10;;;;;;;9.05;95.85;97014.38;4992678;28;20726;-51
2022/04/24 07:31:50;;;;;;;0.53;0.30;;;;;;;9.09;97.12;97016.44;4993074;28;20188;-50
2022/04/24 07:34:17;;;;;;;0.40;0.20;;;;;;;9.19;95.72;97017.94;4992865;28;20216;-51
2022/04/24 07:36:44;;;;;;;0.80;0.30;;;;;;;9.19;94.90;97010.97;4992942;28;20254;-51
2022/04/24 07:39:13;;;;;;;0.30;0.23;;;;;;;9.30;93.87;97022.69;4992729;28;20192;-51
2022/04/24 07:41:39;;;;;;;0.60;0.40;;;;;;;9.40;93.89;97027.63;4992818;28;20702;-51
2022/04/24 07:44:07;;;;;;;0.60;0.60;;;;;;;9.41;94.30;97029.25;4992793;28;20205;-51
2022/04/24 07:46:34;;;;;;;0.87;0.40;;;;;;;9.58;92.98;97027.22;4993016;28;20191;-50
2022/04/24 07:49:02;;;;;;;0.73;0.40;;;;;;;9.54;93.54;97021.56;4992626;28;20192;-53
2022/04/24 07:51:29;;;;;;;0.60;0.40;;;;;;;9.72;90.73;97030.75;4993004;28;20185;-50
2022/04/24 07:53:56;;;;;;;0.20;0.10;;;;;;;9.59;89.09;97029.63;4992393;28;20274;-51
2022/04/24 07:56:23;;;;;;;0.27;0.20;;;;;;;9.41;89.51;97042.28;4992693;28;20192;-51
2022/04/24 07:58:50;;;;;;;0.30;0.10;;;;;;;9.41;92.53;97044.88;4992606;28;20258;-51
2022/04/24 08:01:17;;;;;;;0.30;0.20;;;;;;;9.33;93.03;97043.16;4992517;28;20527;-51
2022/04/24 08:03:44;;;;;;;0.33;0.30;;;;;;;9.38;92.58;97037.44;4992888;28;20262;-50
2022/04/24 08:06:13;;;;;;;0.60;0.40;;;;;;;9.44;92.44;97040.09;4993203;28;20190;-50
2022/04/24 08:08:39;;;;;;;0.10;0.10;;;;;;;9.50;89.82;97035.16;4992371;28;20545;-50
2022/04/24 08:11:06;;;;;;;0.53;0.50;;;;;;;9.53;91.21;97037.38;4992724;28;20193;-51
2022/04/24 08:13:33;;;;;;;0.23;0.17;;;;;;;9.63;91.99;97032.69;4992397;28;20212;-50
2022/04/24 08:16:02;;;;;;;0.30;0.20;;;;;;;9.74;91.47;97034.81;4994265;28;20192;-50
2022/04/24 08:18:29;;;;;;;0.43;0.10;;;;;;;9.85;89.53;97035.31;4995896;28;20656;-51
2022/04/24 08:20:56;;;;;;;1.53;0.70;;;;;;;9.94;90.00;97044.63;4996204;28;20211;-51
2022/04/24 08:23:25;;;;;;;2.40;0.40;;;;;;;10.04;88.33;97039.94;4996099;28;20216;-51
2022/04/24 08:25:52;;;;;;;48.22;22.20;;;;;;;9.96;87.75;97045.25;4995213;28;20440;-50
2022/04/24 08:28:21;;;;;;;1.13;0.60;;;;;;;9.91;90.18;97039.78;4997107;28;20192;-50
2022/04/24 08:30:48;;;;;;;2.90;1.90;;;;;;;9.87;89.61;97044.56;5017769;28;20276;-50
2022/04/24 08:33:17;;;;;;;0.73;0.40;;;;;;;9.75;88.90;97048.63;5018438;28;20607;-50
2022/04/24 08:35:45;;;;;;;0.47;0.30;;;;;;;9.83;87.74;97038.09;5015270;28;20259;-50
2022/04/24 08:38:12;;;;;;;16.33;14.33;;;;;;;9.78;88.85;97042.25;5023167;28;20190;-49
2022/04/24 08:40:40;;;;;;;17.60;15.73;;;;;;;9.90;90.61;97052.00;5027363;28;20190;-50
2022/04/24 08:43:07;;;;;;;7.00;6.50;;;;;;;10.08;87.95;97047.34;5034942;28;20215;-50
2022/04/24 08:45:34;;;;;;;3.53;3.23;;;;;;;9.92;88.57;97046.63;5035098;28;20197;-50
2022/04/24 08:48:02;;;;;;;0.80;0.80;;;;;;;10.03;86.93;97043.53;5035045;28;20281;-50
2022/04/24 08:50:31;;;;;;;1.70;1.60;;;;;;;9.95;87.60;97048.03;5034762;28;20183;-50
2022/04/24 08:52:59;;;;;;;0.50;0.27;;;;;;;10.08;87.56;97058.59;5034641;28;20188;-50
2022/04/24 08:55:27;;;;;;;0.30;0.23;;;;;;;10.15;87.81;97053.44;5034813;28;20216;-50
2022/04/24 08:57:56;;;;;;;0.60;0.40;;;;;;;10.25;88.46;97060.94;5034786;28;20601;-50
2022/04/24 09:00:23;;;;;;;0.40;0.40;;;;;;;10.39;85.26;97051.44;5034477;28;20191;-50
2022/04/24 09:02:51;;;;;;;0.77;0.30;;;;;;;10.17;82.50;97057.47;5034838;28;20271;-50
2022/04/24 09:05:18;;;;;;;0.20;0.20;;;;;;;10.40;87.64;97068.72;5034759;28;20186;-50
2022/04/24 09:07:48;;;;;;;0.43;0.17;;;;;;;10.36;85.28;97057.84;5034784;28;20180;-50
2022/04/24 09:10:15;;;;;;;0.33;0.20;;;;;;;10.57;85.74;97072.69;5034255;28;20192;-50
2022/04/24 09:12:42;;;;;;;1.20;1.10;;;;;;;10.39;83.90;97069.69;5034732;28;20185;-50
2022/04/24 09:15:17;;;;;;;1.53;0.30;;;;;;;10.71;83.90;97070.97;5034542;28;20208;-50
2022/04/24 09:17:44;;;;;;;0.43;0.37;;;;;;;10.10;84.41;97077.47;5034615;28;20197;-50
2022/04/24 09:20:18;;;;;;;1.17;0.20;;;;;;;10.48;79.72;97073.81;5034539;28;20710;-50
2022/04/24 09:23:04;;;;;;;1.30;1.20;;;;;;;10.41;86.00;97083.38;5034698;28;20211;-50
2022/04/24 09:25:40;;;;;;;0.60;0.50;;;;;;;10.53;86.35;97075.88;5034331;28;20282;-50
2022/04/24 09:28:07;;;;;;;1.00;0.50;;;;;;;10.61;84.67;97073.91;5033296;28;20611;-50
2022/04/24 09:30:36;;;;;;;1.23;0.50;;;;;;;10.61;86.25;97083.53;5032137;28;20189;-50
2022/04/24 09:33:03;;;;;;;0.53;0.30;;;;;;;10.41;88.25;97083.38;5023432;28;20192;-51
2022/04/24 09:35:31;;;;;;;1.03;0.90;;;;;;;10.25;86.67;97084.41;5024927;28;20208;-50
2022/04/24 09:38:09;;;;;;;1.00;0.70;;;;;;;10.56;85.99;97093.75;5023399;28;20200;-53
2022/04/24 09:40:40;;;;;;;2.93;1.50;;;;;;;10.40;88.94;97093.03;5018964;28;20560;-50
2022/04/24 09:43:10;;;;;;;2.57;1.47;;;;;;;10.51;88.03;97096.91;5014305;28;20202;-50
2022/04/24 09:45:40;;;;;;;6.17;2.90;;;;;;;10.57;88.20;97103.19;5018531;28;20593;-51
2022/04/24 09:48:14;;;;;;;1.77;0.70;;;;;;;10.48;83.99;97100.72;5023555;28;20199;-50
2022/04/24 09:50:42;;;;;;;2.60;1.93;;;;;;;10.55;85.86;97105.97;5019631;28;20189;-50
2022/04/24 09:53:13;;;;;;;5.37;2.00;;;;;;;10.60;87.87;97113.25;5019961;28;20624;-50
2022/04/24 09:55:40;;;;;;;1.20;0.80;;;;;;;10.54;82.86;97114.00;5019367;28;20292;-50
2022/04/24 09:58:08;;;;;;;2.43;1.40;;;;;;;10.81;85.42;97106.38;5020181;28;20230;-50
2022/04/24 10:00:35;;;;;;;0.83;0.70;;;;;;;10.79;86.27;97114.41;5017782;28;20185;-49
2022/04/24 10:03:04;;;;;;;1.80;0.80;;;;;;;10.80;87.97;97112.56;5020590;28;20199;-50
2022/04/24 10:05:31;;;;;;;1.23;0.40;;;;;;;11.10;88.06;97115.00;5019876;28;20641;-50
2022/04/24 10:08:01;;;;;;;0.83;0.57;;;;;;;11.11;86.00;97116.63;5021191;28;20196;-50
2022/04/24 10:10:28;;;;;;;2.60;0.50;;;;;;;11.52;82.53;97118.44;5021528;28;20258;-50
2022/04/24 10:12:55;;;;;;;0.70;0.40;;;;;;;11.58;84.27;97115.06;5021368;28;20193;-51
2022/04/24 10:15:25;;;;;;;1.37;0.57;;;;;;;11.70;81.60;97115.31;5019113;28;20267;-49
2022/04/24 10:18:30;;;;;;;1.13;0.40;;;;;;;11.73;80.69;97116.69;5021646;28;20323;-51
2022/04/24 10:21:21;;;;;;;0.80;0.60;;;;;;;11.82;83.33;97118.16;5018990;28;20193;-50
2022/04/24 10:23:48;;;;;;;2.00;0.50;;;;;;;11.95;81.01;97120.81;5020742;28;20225;-50
2022/04/24 10:26:20;;;;;;;3.60;0.67;;;;;;;11.92;85.18;97123.03;5018967;28;20208;-50
2022/04/24 10:28:47;;;;;;;2.13;0.73;;;;;;;11.70;83.95;97127.53;5018749;28;20191;-49
2022/04/24 10:31:17;;;;;;;2.40;0.60;;;;;;;11.89;84.47;97124.19;5016378;28;20249;-50
2022/04/24 10:33:53;;;;;;;0.67;0.30;;;;;;;12.10;81.72;97125.94;5020749;28;20222;-50
2022/04/24 10:36:20;;;;;;;1.07;0.40;;;;;;;12.30;82.84;97127.75;5017212;28;20219;-50
2022/04/24 10:38:49;;;;;;;1.00;0.50;;;;;;;12.12;81.36;97119.69;5020801;28;20202;-48
2022/04/24 10:41:18;;;;;;;3.83;0.43;;;;;;;12.47;80.98;97125.56;5016383;28;20190;-50
2022/04/24 10:43:48;;;;;;;0.63;0.40;;;;;;;12.84;75.34;97133.81;5020801;28;20280;-48
2022/04/24 10:46:19;;;;;;;2.27;0.77;;;;;;;12.80;75.56;97129.22;5016313;28;20195;-50
2022/04/24 10:48:48;;;;;;;0.73;0.40;;;;;;;12.38;77.14;97137.25;5020496;28;20272;-50
2022/04/24 10:51:28;;;;;;;1.50;0.30;;;;;;;12.20;77.33;97130.75;5016084;28;20220;-50
2022/04/24 10:53:58;;;;;;;0.70;0.30;;;;;;;11.73;81.13;97141.06;5018146;28;20242;-50
2022/04/24 10:56:27;;;;;;;1.30;1.10;;;;;;;11.45;82.44;97141.13;5018439;28;20226;-51
2022/04/24 10:58:53;;;;;;;1.17;0.87;;;;;;;11.21;85.01;97135.34;5017895;28;20684;-51
2022/04/24 11:01:21;;;;;;;0.63;0.40;;;;;;;10.54;86.64;97138.28;5018307;28;20193;-50
2022/04/24 11:03:48;;;;;;;0.60;0.50;;;;;;;10.45;86.61;97131.56;5014995;28;20210;-50
2022/04/24 11:06:21;;;;;;;1.80;0.70;;;;;;;10.23;87.74;97134.13;5017505;28;20200;-51
2022/04/24 11:08:49;;;;;;;3.47;0.60;;;;;;;10.27;89.78;97138.00;5020520;28;20195;-50
2022/04/24 11:11:17;;;;;;;0.60;0.50;;;;;;;10.29;89.64;97137.81;5011786;28;20195;-50
2022/04/24 11:13:44;;;;;;;4.20;1.70;;;;;;;10.51;85.29;97138.66;5015301;28;20219;-50
2022/04/24 11:16:13;;;;;;;0.57;0.50;;;;;;;10.30;88.62;97136.84;5016695;28;20208;-50
2022/04/24 11:18:46;;;;;;;1.03;0.70;;;;;;;10.53;89.43;97139.28;5022376;28;20716;-50
2022/04/24 11:21:19;;;;;;;1.77;1.23;;;;;;;10.80;83.74;97143.91;5018139;28;20656;-49
2022/04/24 11:24:07;;;;;;;1.90;0.77;;;;;;;11.27;87.01;97145.03;5023421;28;20691;-49
2022/04/24 11:26:34;;;;;;;1.10;1.00;;;;;;;11.39;86.71;97147.91;5016574;28;20196;-57
2022/04/24 11:29:09;;;;;;;0.70;0.50;;;;;;;11.44;83.29;97147.34;5018855;28;20559;-51
2022/04/24 11:31:36;;;;;;;1.73;0.70;;;;;;;11.50;83.75;97155.22;5015963;28;20193;-50
2022/04/24 11:34:04;;;;;;;2.67;0.70;;;;;;;11.65;84.55;97165.56;5031960;28;20200;-51
2022/04/24 11:36:32;;;;;;;1.37;0.70;;;;;;;11.70;84.30;97151.91;5031873;28;20299;-56
2022/04/24 11:39:01;;;;;;;5.53;2.53;;;;;;;11.46;83.39;97161.03;5031458;28;20252;-55